createdAt,value
2023-08-08T00:01:48.183Z,14.03
2023-08-08T00:04:18.299Z,14.01
2023-08-08T00:06:50.060Z,13.98
2023-08-08T00:09:21.591Z,13.97
2023-08-08T00:11:53.173Z,13.97
2023-08-08T00:14:23.272Z,13.95
2023-08-08T00:16:54.890Z,13.93
2023-08-08T00:19:26.594Z,13.92
2023-08-08T00:21:58.308Z,13.90
2023-08-08T00:24:30.235Z,13.87
2023-08-08T00:27:01.863Z,13.84
2023-08-08T00:29:33.439Z,13.81
2023-08-08T00:32:05.647Z,13.78
2023-08-08T00:34:37.875Z,13.75
2023-08-08T00:37:09.662Z,13.74
2023-08-08T00:39:43.742Z,13.72
2023-08-08T00:42:16.999Z,13.70
2023-08-08T00:44:48.531Z,13.67
2023-08-08T00:47:18.646Z,13.66
2023-08-08T00:49:50.947Z,13.65
2023-08-08T00:52:22.933Z,13.64
2023-08-08T00:54:55.431Z,13.62
2023-08-08T00:57:27.838Z,13.61
2023-08-08T00:59:59.679Z,13.59
2023-08-08T01:02:31.508Z,13.57
2023-08-08T01:05:05.687Z,13.54
2023-08-08T01:07:45.945Z,13.51
2023-08-08T01:10:22.556Z,13.47
2023-08-08T01:13:00.287Z,13.43
2023-08-08T01:15:36.812Z,13.40
2023-08-08T01:18:12.000Z,13.35
2023-08-08T01:20:45.269Z,13.31
2023-08-08T01:23:21.408Z,13.28
2023-08-08T01:25:54.006Z,13.25
2023-08-08T01:28:26.354Z,13.22
2023-08-08T01:30:58.041Z,13.17
2023-08-08T01:33:30.034Z,13.13
2023-08-08T01:36:04.895Z,13.08
2023-08-08T01:38:41.879Z,13.02
2023-08-08T01:41:14.500Z,12.97
2023-08-08T01:43:48.569Z,12.93
2023-08-08T01:46:21.031Z,12.88
2023-08-08T01:48:52.628Z,12.83
2023-08-08T01:51:25.317Z,12.79
2023-08-08T01:53:56.985Z,12.77
2023-08-08T01:56:28.538Z,12.73
2023-08-08T01:58:58.775Z,12.69
2023-08-08T02:01:30.658Z,12.64
2023-08-08T02:04:02.371Z,12.61
2023-08-08T02:06:33.958Z,12.59
2023-08-08T02:09:04.220Z,12.56
2023-08-08T02:11:35.767Z,12.54
2023-08-08T02:14:05.860Z,12.52
2023-08-08T02:16:38.157Z,12.50
2023-08-08T02:19:10.006Z,12.50
2023-08-08T02:21:41.708Z,12.52
2023-08-08T02:24:11.820Z,12.52
2023-08-08T02:26:43.378Z,12.49
2023-08-08T02:29:13.482Z,12.47
2023-08-08T02:31:45.176Z,12.46
2023-08-08T02:34:16.834Z,12.46
2023-08-08T02:36:48.331Z,12.43
2023-08-08T02:39:18.956Z,12.42
2023-08-08T02:41:50.480Z,12.40
2023-08-08T02:44:23.571Z,12.37
2023-08-08T02:46:55.106Z,12.35
2023-08-08T02:49:25.372Z,12.34
2023-08-08T02:51:57.621Z,12.32
2023-08-08T02:54:32.014Z,12.31
2023-08-08T02:57:04.187Z,12.32
2023-08-08T02:59:35.776Z,12.33
2023-08-08T03:02:09.823Z,12.33
2023-08-08T03:04:43.060Z,12.33
2023-08-08T03:07:14.829Z,12.33
2023-08-08T03:09:46.429Z,12.33
2023-08-08T03:12:18.594Z,12.33
2023-08-08T03:14:50.416Z,12.33
2023-08-08T03:17:22.172Z,12.32
2023-08-08T03:19:55.056Z,12.32
2023-08-08T03:22:28.351Z,12.30
2023-08-08T03:25:00.459Z,12.30
2023-08-08T03:27:32.298Z,12.30
2023-08-08T03:30:05.439Z,12.30
2023-08-08T03:32:42.258Z,12.30
2023-08-08T03:35:16.035Z,12.30
2023-08-08T03:37:48.055Z,12.32
2023-08-08T03:40:20.381Z,12.33
2023-08-08T03:42:52.176Z,12.34
2023-08-08T03:45:24.127Z,12.34
2023-08-08T03:47:55.734Z,12.34
2023-08-08T03:50:27.631Z,12.34
2023-08-08T03:52:59.206Z,12.33
2023-08-08T03:55:30.758Z,12.31
2023-08-08T03:58:02.527Z,12.32
2023-08-08T04:00:32.624Z,12.31
2023-08-08T04:03:04.510Z,12.30
2023-08-08T04:05:36.125Z,12.29
2023-08-08T04:08:06.883Z,12.27
2023-08-08T04:10:38.502Z,12.25
2023-08-08T04:13:08.648Z,12.24
2023-08-08T04:15:41.265Z,12.24
2023-08-08T04:18:13.124Z,12.24
2023-08-08T04:20:45.333Z,12.23
2023-08-08T04:23:16.955Z,12.24
2023-08-08T04:25:48.780Z,12.28
2023-08-08T04:28:20.509Z,12.34
2023-08-08T04:30:52.132Z,12.42
2023-08-08T04:33:23.903Z,12.51
2023-08-08T04:35:55.432Z,12.59
2023-08-08T04:38:27.230Z,12.66
2023-08-08T04:40:58.807Z,12.72
2023-08-08T04:43:30.373Z,12.77
2023-08-08T04:46:00.455Z,12.80
2023-08-08T04:48:32.012Z,12.86
2023-08-08T04:51:02.086Z,12.91
2023-08-08T04:53:33.590Z,12.96
2023-08-08T04:56:03.736Z,13.01
2023-08-08T04:58:35.326Z,13.06
2023-08-08T05:01:05.481Z,13.14
2023-08-08T05:03:37.834Z,13.29
2023-08-08T05:06:09.482Z,13.47
2023-08-08T05:08:41.018Z,13.68
2023-08-08T05:11:11.464Z,13.89
2023-08-08T05:13:43.925Z,14.12
2023-08-08T05:16:15.543Z,14.37
2023-08-08T05:18:47.114Z,14.62
2023-08-08T05:21:18.597Z,14.86
2023-08-08T05:23:50.142Z,15.08
2023-08-08T05:26:20.229Z,15.26
2023-08-08T05:28:51.899Z,15.43
2023-08-08T05:31:23.460Z,15.62
2023-08-08T05:33:55.022Z,15.81
2023-08-08T05:36:26.651Z,16.01
2023-08-08T05:38:58.134Z,16.18
2023-08-08T05:41:28.217Z,16.32
2023-08-08T05:43:59.792Z,16.43
2023-08-08T05:46:29.892Z,16.54
2023-08-08T05:49:02.459Z,16.61
2023-08-08T05:51:34.412Z,16.72
2023-08-08T05:54:06.227Z,16.84
2023-08-08T05:56:41.112Z,16.97
2023-08-08T05:59:12.676Z,17.05
2023-08-08T06:01:45.479Z,17.02
2023-08-08T06:04:17.237Z,16.98
2023-08-08T06:06:50.287Z,17.01
2023-08-08T06:09:23.467Z,17.08
2023-08-08T06:11:55.039Z,17.02
2023-08-08T06:14:26.673Z,17.01
2023-08-08T06:16:58.251Z,17.04
2023-08-08T06:19:29.779Z,17.12
2023-08-08T06:22:01.580Z,17.24
2023-08-08T06:24:33.758Z,17.34
2023-08-08T06:27:05.968Z,17.42
2023-08-08T06:29:37.540Z,17.51
2023-08-08T06:32:09.958Z,17.64
2023-08-08T06:34:41.552Z,17.76
2023-08-08T06:37:13.230Z,17.83
2023-08-08T06:39:45.028Z,17.97
2023-08-08T06:42:16.728Z,18.13
2023-08-08T06:44:56.148Z,18.26
2023-08-08T06:47:27.783Z,18.35
2023-08-08T06:49:59.421Z,18.42
2023-08-08T06:52:31.176Z,18.49
2023-08-08T06:55:03.050Z,18.47
2023-08-08T06:57:36.695Z,18.37
2023-08-08T07:00:11.473Z,18.26
2023-08-08T07:02:43.388Z,18.30
2023-08-08T07:05:15.068Z,18.38
2023-08-08T07:07:47.240Z,18.35
2023-08-08T07:10:19.086Z,18.27
2023-08-08T07:12:50.889Z,18.10
2023-08-08T07:15:23.367Z,17.89
2023-08-08T07:17:55.049Z,17.77
2023-08-08T07:20:26.789Z,17.74
2023-08-08T07:22:58.652Z,17.76
2023-08-08T07:25:30.370Z,17.70
2023-08-08T07:28:01.957Z,17.62
2023-08-08T07:30:33.556Z,17.64
2023-08-08T07:33:05.457Z,17.71
2023-08-08T07:35:38.151Z,17.70
2023-08-08T07:38:09.702Z,17.60
2023-08-08T07:40:42.139Z,17.62
2023-08-08T07:43:14.095Z,17.75
2023-08-08T07:45:46.079Z,17.87
2023-08-08T07:48:17.793Z,17.96
2023-08-08T07:50:49.322Z,18.02
2023-08-08T07:53:20.975Z,18.03
2023-08-08T07:55:52.651Z,17.99
2023-08-08T07:58:27.239Z,17.87
2023-08-08T08:01:03.258Z,17.76
2023-08-08T08:03:35.231Z,17.70
2023-08-08T08:06:07.346Z,17.63
2023-08-08T08:08:38.990Z,17.53
2023-08-08T08:11:10.985Z,17.38
2023-08-08T08:13:42.745Z,17.25
2023-08-08T08:16:14.475Z,17.17
2023-08-08T08:18:46.238Z,17.15
2023-08-08T08:21:18.861Z,17.15
2023-08-08T08:23:50.707Z,17.19
2023-08-08T08:26:22.352Z,17.25
2023-08-08T08:28:53.820Z,17.33
2023-08-08T08:31:25.365Z,17.40
2023-08-08T08:33:58.537Z,17.44
2023-08-08T08:36:30.281Z,17.44
2023-08-08T08:39:01.849Z,17.44
2023-08-08T08:41:37.492Z,17.41
2023-08-08T08:44:10.012Z,17.37
2023-08-08T08:46:42.192Z,17.32
2023-08-08T08:49:14.668Z,17.30
2023-08-08T08:51:46.466Z,17.30
2023-08-08T08:54:19.749Z,17.37
2023-08-08T08:56:52.523Z,17.48
2023-08-08T08:59:24.500Z,17.52
2023-08-08T09:01:57.572Z,17.52
2023-08-08T09:04:30.691Z,17.45
2023-08-08T09:07:02.984Z,17.34
2023-08-08T09:09:37.468Z,17.19
2023-08-08T09:12:10.581Z,17.03
2023-08-08T09:14:44.377Z,16.96
2023-08-08T09:17:16.536Z,17.03
2023-08-08T09:19:48.689Z,17.17
2023-08-08T09:22:21.334Z,17.32
2023-08-08T09:24:52.897Z,17.35
2023-08-08T09:27:24.633Z,17.31
2023-08-08T09:29:56.317Z,17.22
2023-08-08T09:32:32.213Z,17.14
2023-08-08T09:35:04.463Z,17.05
2023-08-08T09:37:36.215Z,16.99
2023-08-08T09:40:12.384Z,16.94
2023-08-08T09:42:44.587Z,16.97
2023-08-08T09:45:16.135Z,17.12
2023-08-08T09:47:47.830Z,17.30
2023-08-08T09:50:20.314Z,17.47
2023-08-08T09:52:54.262Z,17.70
2023-08-08T09:55:26.220Z,17.94
2023-08-08T09:57:59.185Z,18.17
2023-08-08T10:00:32.067Z,18.39
2023-08-08T10:03:05.338Z,18.59
2023-08-08T10:05:38.417Z,18.71
2023-08-08T10:08:10.482Z,18.83
2023-08-08T10:10:43.786Z,18.97
2023-08-08T10:13:23.145Z,19.12
2023-08-08T10:15:55.446Z,19.29
2023-08-08T10:18:29.432Z,19.43
2023-08-08T10:21:01.219Z,19.53
2023-08-08T10:23:39.549Z,19.41
2023-08-08T10:26:22.173Z,19.25
2023-08-08T10:29:00.283Z,19.15
2023-08-08T10:31:37.584Z,19.14
2023-08-08T10:34:10.930Z,19.18
2023-08-08T10:36:53.741Z,19.22
2023-08-08T10:39:26.886Z,19.30
2023-08-08T10:42:02.870Z,19.41
2023-08-08T10:44:43.203Z,19.55
2023-08-08T10:47:15.197Z,19.63
2023-08-08T10:49:47.048Z,19.72
2023-08-08T10:52:18.820Z,19.83
2023-08-08T10:54:56.537Z,19.97
2023-08-08T10:57:30.778Z,20.02
2023-08-08T11:00:25.671Z,20.02
2023-08-08T11:02:57.651Z,20.03
2023-08-08T11:05:31.868Z,20.08
2023-08-08T11:08:05.046Z,20.12
2023-08-08T11:10:40.802Z,20.19
2023-08-08T11:13:12.459Z,20.28
2023-08-08T11:15:45.482Z,20.24
2023-08-08T11:18:17.306Z,20.07
2023-08-08T11:20:50.330Z,19.83
2023-08-08T11:23:22.191Z,19.48
2023-08-08T11:28:28.333Z,18.90
2023-08-08T11:31:00.338Z,18.67
2023-08-08T11:33:33.276Z,18.56
2023-08-08T11:36:07.857Z,18.58
2023-08-08T11:38:41.997Z,18.72
2023-08-08T11:41:15.041Z,18.95
2023-08-08T11:43:47.301Z,19.14
2023-08-08T11:46:19.938Z,19.20
2023-08-08T11:48:51.629Z,19.13
2023-08-08T11:51:24.083Z,19.06
2023-08-08T11:53:56.757Z,18.99
2023-08-08T11:56:29.641Z,19.04
2023-08-08T11:59:01.807Z,19.14
2023-08-08T12:01:35.412Z,19.20
2023-08-08T12:04:11.149Z,19.34
2023-08-08T12:06:45.397Z,19.50
2023-08-08T12:09:17.374Z,19.68
2023-08-08T12:11:49.796Z,19.80
2023-08-08T12:14:22.066Z,19.92
2023-08-08T12:16:55.915Z,20.05
2023-08-08T12:19:30.012Z,20.20
2023-08-08T12:22:02.148Z,20.25
2023-08-08T12:24:34.257Z,20.17
2023-08-08T12:27:06.636Z,20.08
2023-08-08T12:29:38.271Z,19.97
2023-08-08T12:32:09.972Z,19.90
2023-08-08T12:34:41.615Z,19.91
2023-08-08T12:37:13.252Z,19.94
2023-08-08T12:39:45.701Z,19.85
2023-08-08T12:42:17.927Z,19.71
2023-08-08T12:44:52.272Z,19.56
2023-08-08T12:47:23.911Z,19.44
2023-08-08T12:49:55.530Z,19.45
2023-08-08T12:52:27.452Z,19.55
2023-08-08T12:54:59.033Z,19.65
2023-08-08T12:57:30.933Z,19.67
2023-08-08T13:00:02.762Z,19.58
2023-08-08T13:02:35.014Z,19.45
2023-08-08T13:05:08.149Z,19.30
2023-08-08T13:07:40.122Z,19.12
2023-08-08T13:10:12.714Z,19.01
2023-08-08T13:12:44.264Z,18.93
2023-08-08T13:15:15.999Z,18.87
2023-08-08T13:17:47.920Z,18.79
2023-08-08T13:20:19.710Z,18.75
2023-08-08T13:22:51.371Z,18.76
2023-08-08T13:25:22.973Z,18.83
2023-08-08T13:27:54.559Z,19.02
2023-08-08T13:30:26.271Z,19.22
2023-08-08T13:33:00.462Z,19.28
2023-08-08T13:35:32.470Z,19.26
2023-08-08T13:38:04.185Z,19.26
2023-08-08T13:40:36.205Z,19.34
2023-08-08T13:43:07.885Z,19.46
2023-08-08T13:45:40.460Z,19.58
2023-08-08T13:48:12.373Z,19.64
2023-08-08T13:50:44.028Z,19.67
2023-08-08T13:53:15.595Z,19.64
2023-08-08T13:55:47.223Z,19.63
2023-08-08T13:58:18.869Z,19.57
2023-08-08T14:00:50.516Z,19.51
2023-08-08T14:03:23.422Z,19.44
2023-08-08T14:05:55.212Z,19.39
2023-08-08T14:08:26.927Z,19.33
2023-08-08T14:10:58.674Z,19.26
2023-08-08T14:13:30.344Z,19.20
2023-08-08T14:16:02.091Z,19.17
2023-08-08T14:18:33.927Z,19.13
2023-08-08T14:21:05.842Z,19.07
2023-08-08T14:23:37.621Z,18.99
2023-08-08T14:26:09.272Z,18.86
2023-08-08T14:28:40.941Z,18.80
2023-08-08T14:31:12.657Z,18.83
2023-08-08T14:33:44.366Z,18.86
2023-08-08T14:36:16.046Z,18.89
2023-08-08T14:38:47.714Z,18.84
2023-08-08T14:41:19.291Z,18.82
2023-08-08T14:43:50.898Z,18.80
2023-08-08T14:46:22.462Z,18.75
2023-08-08T14:48:54.198Z,18.63
2023-08-08T14:51:26.616Z,18.55
2023-08-08T14:53:58.354Z,18.45
2023-08-08T14:56:30.442Z,18.35
2023-08-08T14:59:02.036Z,18.28
2023-08-08T15:01:34.362Z,18.26
2023-08-08T15:04:07.144Z,18.20
2023-08-08T15:06:39.991Z,18.17
2023-08-08T15:09:12.281Z,18.16
2023-08-08T15:11:44.142Z,18.17
2023-08-08T15:14:15.673Z,18.18
2023-08-08T15:16:53.304Z,18.18
2023-08-08T15:19:25.073Z,18.17
2023-08-08T15:21:57.392Z,18.18
2023-08-08T15:24:29.449Z,18.20
2023-08-08T15:27:01.372Z,18.20
2023-08-08T15:29:33.318Z,18.17
2023-08-08T15:32:05.129Z,18.16
2023-08-08T15:34:37.411Z,18.15
2023-08-08T15:37:10.108Z,18.18
2023-08-08T15:39:41.692Z,18.15
2023-08-08T15:42:13.248Z,18.18
2023-08-08T15:44:45.099Z,18.22
2023-08-08T15:47:16.719Z,18.21
2023-08-08T15:49:49.070Z,18.16
2023-08-08T15:52:21.057Z,18.10
2023-08-08T15:54:53.334Z,18.05
2023-08-08T15:57:25.056Z,18.00
2023-08-08T15:59:56.678Z,17.96
2023-08-08T16:02:28.959Z,17.93
2023-08-08T16:05:01.360Z,17.92
2023-08-08T16:07:33.001Z,17.91
2023-08-08T16:10:05.049Z,17.91
2023-08-08T16:12:37.172Z,17.91
2023-08-08T16:15:10.752Z,17.91
2023-08-08T16:17:42.409Z,17.91
2023-08-08T16:20:16.851Z,17.91
2023-08-08T16:22:50.161Z,17.92
2023-08-08T16:25:22.086Z,17.92
2023-08-08T16:27:53.695Z,17.91
2023-08-08T16:30:25.776Z,17.89
2023-08-08T16:32:57.441Z,17.87
2023-08-08T16:35:29.860Z,17.86
2023-08-08T16:38:01.563Z,17.86
2023-08-08T16:40:33.202Z,17.84
2023-08-08T16:43:05.126Z,17.82
2023-08-08T16:45:36.761Z,17.80
2023-08-08T16:48:09.380Z,17.80
2023-08-08T16:50:41.825Z,17.80
2023-08-08T16:53:13.607Z,17.81
2023-08-08T16:55:45.356Z,17.80
2023-08-08T16:58:17.196Z,17.78
2023-08-08T17:00:49.133Z,17.75
2023-08-08T17:03:21.030Z,17.72
2023-08-08T17:05:53.367Z,17.69
2023-08-08T17:08:25.065Z,17.67
2023-08-08T17:10:56.656Z,17.64
2023-08-08T17:13:31.001Z,17.60
2023-08-08T17:16:03.223Z,17.54
2023-08-08T17:18:35.268Z,17.47
2023-08-08T17:21:06.920Z,17.40
2023-08-08T17:23:38.696Z,17.32
2023-08-08T17:26:10.488Z,17.24
2023-08-08T17:28:42.340Z,17.16
2023-08-08T17:31:14.112Z,17.10
2023-08-08T17:33:45.889Z,17.03
2023-08-08T17:36:17.534Z,16.94
2023-08-08T17:38:49.100Z,16.86
2023-08-08T17:41:20.828Z,16.77
2023-08-08T17:43:52.371Z,16.67
2023-08-08T17:46:24.052Z,16.56
2023-08-08T17:48:55.763Z,16.46
2023-08-08T17:51:27.427Z,16.37
2023-08-08T17:53:59.070Z,16.28
2023-08-08T17:56:30.808Z,16.20
2023-08-08T17:59:02.316Z,16.12
2023-08-08T18:01:33.944Z,16.06
2023-08-08T18:04:06.413Z,15.98
2023-08-08T18:06:39.432Z,15.92
2023-08-08T18:09:11.408Z,15.85
2023-08-08T18:11:42.940Z,15.80
2023-08-08T18:14:14.978Z,15.75
2023-08-08T18:16:46.861Z,15.69
2023-08-08T18:19:22.247Z,15.64
2023-08-08T18:21:53.820Z,15.58
2023-08-08T18:24:27.138Z,15.51
2023-08-08T18:27:01.446Z,15.45
2023-08-08T18:29:34.977Z,15.39
2023-08-08T18:32:08.249Z,15.31
2023-08-08T18:34:40.022Z,15.25
2023-08-08T18:37:11.970Z,15.19
2023-08-08T18:39:43.672Z,15.14
2023-08-08T18:42:15.417Z,15.10
2023-08-08T18:44:49.356Z,15.05
2023-08-08T18:47:22.717Z,15.01
2023-08-08T18:49:54.725Z,14.96
2023-08-08T18:52:27.330Z,14.91
2023-08-08T18:54:58.982Z,14.86
2023-08-08T18:57:30.701Z,14.81
2023-08-08T19:00:04.178Z,14.78
2023-08-08T19:02:38.675Z,14.75
2023-08-08T19:05:13.380Z,14.72
2023-08-08T19:07:48.772Z,14.69
2023-08-08T19:10:20.545Z,14.64
2023-08-08T19:12:55.114Z,14.59
2023-08-08T19:15:32.473Z,14.54
2023-08-08T19:18:07.424Z,14.49
2023-08-08T19:20:39.567Z,14.43
2023-08-08T19:23:11.371Z,14.38
2023-08-08T19:25:45.222Z,14.35
2023-08-08T19:28:20.199Z,14.31
2023-08-08T19:30:53.833Z,14.27
2023-08-08T19:33:25.733Z,14.23
2023-08-08T19:35:59.324Z,14.20
2023-08-08T19:38:31.631Z,14.18
2023-08-08T19:41:04.489Z,14.17
2023-08-08T19:43:41.771Z,14.16
2023-08-08T19:46:15.486Z,14.14
2023-08-08T19:48:49.842Z,14.13
2023-08-08T19:51:21.791Z,14.13
2023-08-08T19:53:53.730Z,14.13
2023-08-08T19:56:28.207Z,14.13
2023-08-08T19:59:00.126Z,14.13
2023-08-08T20:01:31.929Z,14.12
2023-08-08T20:04:07.206Z,14.07
2023-08-08T20:06:38.869Z,14.04
2023-08-08T20:09:10.587Z,14.04
2023-08-08T20:11:42.624Z,14.07
2023-08-08T20:14:14.349Z,14.11
2023-08-08T20:16:46.010Z,14.13
2023-08-08T20:19:18.318Z,14.13
2023-08-08T20:21:50.522Z,14.15
2023-08-08T20:24:22.705Z,14.14
2023-08-08T20:26:54.498Z,14.12
2023-08-08T20:29:26.293Z,14.12
2023-08-08T20:31:58.017Z,14.14
2023-08-08T20:34:31.759Z,14.16
2023-08-08T20:37:04.997Z,14.18
2023-08-08T20:39:36.768Z,14.21
2023-08-08T20:42:08.929Z,14.23
2023-08-08T20:44:40.501Z,14.24
2023-08-08T20:47:12.183Z,14.25
2023-08-08T20:49:43.985Z,14.26
2023-08-08T20:52:15.661Z,14.27
2023-08-08T20:54:47.721Z,14.27
2023-08-08T20:57:19.558Z,14.27
2023-08-08T20:59:51.525Z,14.27
2023-08-08T21:02:23.530Z,14.27
2023-08-08T21:04:55.329Z,14.25
2023-08-08T21:07:27.515Z,14.23
2023-08-08T21:09:59.197Z,14.22
2023-08-08T21:12:31.008Z,14.19
2023-08-08T21:15:02.638Z,14.17
2023-08-08T21:17:34.250Z,14.13
2023-08-08T21:20:07.835Z,14.10
2023-08-08T21:22:39.472Z,14.09
2023-08-08T21:25:12.013Z,14.07
2023-08-08T21:27:43.740Z,14.07
2023-08-08T21:30:15.466Z,14.05
2023-08-08T21:32:47.126Z,14.05
2023-08-08T21:35:19.210Z,14.04
2023-08-08T21:37:51.055Z,14.03
2023-08-08T21:40:23.090Z,14.02
2023-08-08T21:42:55.422Z,14.00
2023-08-08T21:45:27.638Z,13.98
2023-08-08T21:48:00.417Z,13.95
2023-08-08T21:50:32.438Z,13.92
2023-08-08T21:53:04.938Z,13.87
2023-08-08T21:55:36.602Z,13.82
2023-08-08T21:58:08.381Z,13.78
2023-08-08T22:00:40.802Z,13.74
2023-08-08T22:03:13.070Z,13.70
2023-08-08T22:05:45.262Z,13.67
2023-08-08T22:08:17.053Z,13.64
2023-08-08T22:10:49.082Z,13.61
2023-08-08T22:13:21.943Z,13.60
2023-08-08T22:15:54.229Z,13.59
2023-08-08T22:18:26.097Z,13.60
2023-08-08T22:20:58.090Z,13.61
2023-08-08T22:23:29.730Z,13.63
2023-08-08T22:26:01.265Z,13.66
2023-08-08T22:28:31.404Z,13.68
2023-08-08T22:31:03.183Z,13.70
2023-08-08T22:33:35.160Z,13.74
2023-08-08T22:36:08.003Z,13.77
2023-08-08T22:38:41.183Z,13.81
2023-08-08T22:41:12.841Z,13.86
2023-08-08T22:43:45.815Z,13.90
2023-08-08T22:46:17.660Z,13.92
2023-08-08T22:48:49.505Z,13.96
2023-08-08T22:51:21.239Z,13.99
2023-08-08T22:53:53.053Z,14.02
2023-08-08T22:56:24.878Z,14.05
2023-08-08T22:58:56.494Z,14.08
2023-08-08T23:01:28.105Z,14.08
2023-08-08T23:03:59.759Z,14.07
2023-08-08T23:06:31.773Z,14.07
2023-08-08T23:09:03.435Z,14.07
2023-08-08T23:11:35.003Z,14.07
2023-08-08T23:14:05.448Z,14.08
2023-08-08T23:16:37.160Z,14.09
2023-08-08T23:19:08.966Z,14.09
2023-08-08T23:21:40.630Z,14.10
2023-08-08T23:24:13.015Z,14.10
2023-08-08T23:26:45.301Z,14.10
2023-08-08T23:29:16.887Z,14.11
2023-08-08T23:31:49.773Z,14.11
2023-08-08T23:34:21.707Z,14.09
2023-08-08T23:36:53.380Z,14.06
2023-08-08T23:39:25.123Z,14.04
2023-08-08T23:41:56.696Z,14.01
2023-08-08T23:44:28.315Z,13.99
2023-08-08T23:47:00.363Z,13.96
2023-08-08T23:49:32.655Z,13.93
2023-08-08T23:52:04.709Z,13.88
2023-08-08T23:54:36.674Z,13.84
2023-08-08T23:57:08.746Z,13.81
2023-08-08T23:59:40.350Z,13.76
